createdAt,value
2019-05-17T00:00:28.701Z,94.46
2019-05-17T00:01:32.407Z,93.80
2019-05-17T00:02:37.521Z,94.20
2019-05-17T00:03:40.309Z,94.20
2019-05-17T00:04:43.357Z,93.99
2019-05-17T00:05:47.253Z,93.93
2019-05-17T00:06:50.356Z,93.93
2019-05-17T00:07:54.042Z,93.88
2019-05-17T00:08:56.911Z,94.25
2019-05-17T00:10:00.289Z,94.00
2019-05-17T00:11:03.184Z,94.21
2019-05-17T00:12:07.496Z,94.18
2019-05-17T00:13:17.443Z,94.10
2019-05-17T00:14:21.191Z,94.10
2019-05-17T00:15:24.061Z,94.52
2019-05-17T00:16:27.401Z,94.37
2019-05-17T00:17:39.232Z,94.11
2019-05-17T00:18:43.524Z,94.26
2019-05-17T00:19:56.714Z,94.81
2019-05-17T00:20:59.702Z,94.04
2019-05-17T00:22:02.532Z,94.29
2019-05-17T00:23:07.139Z,94.29
2019-05-17T00:24:10.131Z,94.26
2019-05-17T00:25:13.585Z,94.26
2019-05-17T00:26:16.725Z,94.28
2019-05-17T00:27:20.295Z,94.59
2019-05-17T00:28:23.127Z,94.59
2019-05-17T00:29:31.014Z,94.44
2019-05-17T00:30:33.855Z,94.62
2019-05-17T00:31:37.803Z,94.62
2019-05-17T00:32:40.970Z,94.30
2019-05-17T00:33:44.345Z,94.30
2019-05-17T00:34:47.273Z,94.70
2019-05-17T00:35:50.653Z,94.57
2019-05-17T00:36:57.271Z,94.57
2019-05-17T00:37:59.997Z,93.92
2019-05-17T00:39:03.123Z,93.92
2019-05-17T00:40:07.314Z,94.56
2019-05-17T00:41:10.272Z,93.73
2019-05-17T00:42:14.142Z,94.12
2019-05-17T00:43:19.550Z,94.12
2019-05-17T00:44:27.216Z,94.21
2019-05-17T00:45:30.440Z,94.02
2019-05-17T00:46:34.333Z,94.04
2019-05-17T00:47:37.566Z,94.41
2019-05-17T00:48:41.365Z,94.22
2019-05-17T00:49:46.462Z,94.51
2019-05-17T00:51:01.693Z,94.51
2019-05-17T00:52:00.531Z,94.17
2019-05-17T00:53:04.254Z,94.77
2019-05-17T00:54:07.090Z,94.37
2019-05-17T00:55:10.505Z,94.36
2019-05-17T00:56:13.672Z,94.55
2019-05-17T00:57:17.357Z,94.44
2019-05-17T00:58:20.178Z,94.72
2019-05-17T00:59:26.352Z,94.66
2019-05-17T01:00:29.354Z,94.40
2019-05-17T01:01:32.847Z,94.37
2019-05-17T01:02:36.328Z,94.74
2019-05-17T01:03:40.064Z,94.62
2019-05-17T01:04:42.943Z,94.85
2019-05-17T01:05:47.375Z,95.18
2019-05-17T01:06:50.207Z,95.22
2019-05-17T01:07:53.981Z,95.06
2019-05-17T01:09:01.874Z,94.86
2019-05-17T01:10:02.271Z,94.86
2019-05-17T01:11:07.127Z,95.20
2019-05-17T01:12:10.111Z,95.20
2019-05-17T01:13:12.920Z,94.91
2019-05-17T01:14:17.568Z,94.91
2019-05-17T01:15:20.948Z,94.91
2019-05-17T01:16:24.312Z,94.91
2019-05-17T01:17:27.228Z,94.91
2019-05-17T01:18:30.646Z,94.90
2019-05-17T01:19:33.443Z,95.13
2019-05-17T01:20:39.538Z,95.33
2019-05-17T01:21:47.292Z,95.14
2019-05-17T01:22:56.752Z,95.14
2019-05-17T01:24:00.243Z,95.31
2019-05-17T01:25:03.674Z,95.19
2019-05-17T01:26:07.497Z,95.43
2019-05-17T01:27:11.048Z,95.43
2019-05-17T01:28:16.415Z,95.54
2019-05-17T01:29:22.355Z,95.49
2019-05-17T01:30:26.630Z,95.83
2019-05-17T01:31:30.173Z,95.13
2019-05-17T01:32:32.963Z,95.45
2019-05-17T01:33:36.852Z,95.38
2019-05-17T01:34:43.007Z,95.29
2019-05-17T01:35:46.702Z,95.30
2019-05-17T01:36:49.631Z,95.26
2019-05-17T01:37:56.560Z,95.25
2019-05-17T01:39:13.190Z,95.25
2019-05-17T01:40:06.800Z,95.53
2019-05-17T01:41:10.099Z,95.87
2019-05-17T01:42:13.543Z,95.47
2019-05-17T01:43:16.809Z,95.04
2019-05-17T01:44:21.275Z,95.58
2019-05-17T01:45:24.077Z,95.58
2019-05-17T01:46:27.885Z,95.03
2019-05-17T01:47:31.083Z,95.22
2019-05-17T01:48:36.512Z,95.52
2019-05-17T01:49:38.962Z,95.55
2019-05-17T01:50:42.303Z,95.57
2019-05-17T01:51:46.470Z,95.25
2019-05-17T01:52:50.179Z,95.26
2019-05-17T01:53:57.208Z,95.26
2019-05-17T01:55:01.077Z,95.20
2019-05-17T01:56:06.192Z,95.00
2019-05-17T01:57:08.936Z,95.04
2019-05-17T01:58:11.810Z,95.04
2019-05-17T01:59:17.281Z,95.30
2019-05-17T02:00:20.148Z,95.52
2019-05-17T02:01:23.495Z,95.51
2019-05-17T02:02:31.792Z,95.92
2019-05-17T02:03:37.305Z,95.40
2019-05-17T02:04:39.659Z,95.40
2019-05-17T02:05:47.337Z,95.35
2019-05-17T02:06:50.587Z,95.92
2019-05-17T02:07:54.081Z,95.30
2019-05-17T02:08:57.111Z,95.30
2019-05-17T02:10:01.537Z,95.41
2019-05-17T02:11:12.593Z,95.14
2019-05-17T02:12:17.280Z,95.29
2019-05-17T02:13:20.483Z,95.30
2019-05-17T02:14:26.863Z,95.68
2019-05-17T02:15:29.688Z,95.75
2019-05-17T02:16:37.585Z,95.80
2019-05-17T02:17:39.644Z,95.72
2019-05-17T02:18:46.704Z,95.09
2019-05-17T02:19:49.808Z,95.82
2019-05-17T02:20:53.181Z,95.74
2019-05-17T02:21:57.036Z,95.37
2019-05-17T02:23:00.591Z,95.38
2019-05-17T02:24:03.346Z,95.38
2019-05-17T02:25:07.279Z,96.00
2019-05-17T02:26:13.575Z,95.86
2019-05-17T02:27:17.000Z,95.92
2019-05-17T02:28:21.534Z,95.62
2019-05-17T02:29:33.842Z,96.12
2019-05-17T02:30:36.634Z,96.12
2019-05-17T02:31:43.219Z,95.45
2019-05-17T02:32:45.152Z,95.98
2019-05-17T02:33:48.540Z,95.98
2019-05-17T02:34:53.561Z,95.68
2019-05-17T02:35:58.501Z,95.72
2019-05-17T02:37:02.965Z,95.92
2019-05-17T02:38:06.510Z,95.92
2019-05-17T02:39:12.871Z,96.68
2019-05-17T02:40:15.318Z,96.68
2019-05-17T02:41:18.752Z,96.30
2019-05-17T02:42:22.482Z,96.30
2019-05-17T02:43:25.739Z,96.39
2019-05-17T02:44:29.199Z,96.69
2019-05-17T02:45:33.043Z,96.23
2019-05-17T02:46:37.235Z,96.14
2019-05-17T02:47:43.669Z,96.14
2019-05-17T02:48:46.417Z,96.37
2019-05-17T02:49:53.126Z,95.92
2019-05-17T02:50:56.478Z,95.98
2019-05-17T02:52:02.912Z,96.05
2019-05-17T02:53:04.963Z,96.05
2019-05-17T02:54:07.857Z,96.43
2019-05-17T02:55:12.828Z,96.49
2019-05-17T02:56:16.420Z,96.60
2019-05-17T02:57:22.946Z,95.91
2019-05-17T02:58:24.454Z,95.91
2019-05-17T02:59:27.790Z,96.24
2019-05-17T03:00:33.742Z,96.10
2019-05-17T03:01:36.085Z,96.30
2019-05-17T03:02:38.867Z,96.28
2019-05-17T03:03:43.653Z,96.29
2019-05-17T03:04:48.251Z,96.17
2019-05-17T03:05:53.601Z,96.37
2019-05-17T03:06:56.220Z,96.51
2019-05-17T03:07:59.604Z,96.29
2019-05-17T03:09:03.593Z,96.29
2019-05-17T03:10:18.089Z,96.43
2019-05-17T03:11:13.455Z,95.67
2019-05-17T03:12:16.994Z,95.77
2019-05-17T03:13:23.181Z,95.77
2019-05-17T03:14:25.159Z,95.77
2019-05-17T03:15:27.954Z,96.29
2019-05-17T03:16:33.830Z,95.81
2019-05-17T03:17:36.080Z,96.07
2019-05-17T03:18:39.525Z,95.43
2019-05-17T03:19:43.513Z,95.74
2019-05-17T03:20:47.133Z,95.84
2019-05-17T03:21:49.931Z,95.93
2019-05-17T03:22:54.980Z,96.43
2019-05-17T03:23:58.093Z,95.68
2019-05-17T03:25:03.447Z,96.08
2019-05-17T03:26:05.947Z,96.07
2019-05-17T03:27:13.113Z,95.75
2019-05-17T03:28:13.869Z,96.13
2019-05-17T03:29:17.267Z,96.14
2019-05-17T03:30:25.251Z,96.18
2019-05-17T03:31:26.943Z,95.80
2019-05-17T03:32:35.819Z,95.80
2019-05-17T03:33:36.516Z,96.43
2019-05-17T03:34:44.488Z,96.48
2019-05-17T03:35:46.143Z,96.50
2019-05-17T03:36:55.759Z,96.26
2019-05-17T03:37:55.234Z,96.08
2019-05-17T03:38:58.053Z,96.28
2019-05-17T03:40:04.725Z,96.78
2019-05-17T03:41:17.908Z,96.78
2019-05-17T03:42:13.205Z,95.76
2019-05-17T03:43:17.675Z,95.84
2019-05-17T03:44:22.583Z,95.96
2019-05-17T03:45:25.970Z,96.48
2019-05-17T03:46:29.410Z,96.30
2019-05-17T03:47:33.464Z,96.51
2019-05-17T03:48:38.871Z,96.11
2019-05-17T03:49:43.677Z,96.45
2019-05-17T03:50:47.641Z,96.64
2019-05-17T03:52:02.806Z,96.64
2019-05-17T03:53:18.176Z,96.51
2019-05-17T03:54:18.310Z,95.99
2019-05-17T03:55:26.213Z,95.82
2019-05-17T03:56:33.031Z,96.19
2019-05-17T03:57:38.993Z,96.13
2019-05-17T03:58:43.331Z,96.22
2019-05-17T03:59:46.921Z,96.16
2019-05-17T04:00:53.106Z,96.14
2019-05-17T04:01:55.295Z,96.14
2019-05-17T04:03:04.709Z,96.11
2019-05-17T04:04:13.656Z,96.19
2019-05-17T04:05:16.498Z,96.31
2019-05-17T04:06:23.824Z,95.89
2019-05-17T04:07:25.660Z,95.83
2019-05-17T04:08:29.450Z,96.42
2019-05-17T04:09:32.887Z,96.29
2019-05-17T04:10:38.206Z,96.29
2019-05-17T04:11:42.941Z,95.66
2019-05-17T04:12:48.869Z,95.66
2019-05-17T04:13:54.167Z,96.11
2019-05-17T04:14:57.877Z,96.00
2019-05-17T04:16:05.708Z,95.92
2019-05-17T04:17:05.808Z,96.01
2019-05-17T04:18:08.603Z,95.76
2019-05-17T04:19:13.950Z,95.76
2019-05-17T04:20:16.458Z,95.51
2019-05-17T04:21:23.310Z,95.47
2019-05-17T04:22:25.409Z,96.09
2019-05-17T04:23:28.956Z,96.09
2019-05-17T04:24:32.559Z,95.51
2019-05-17T04:25:38.727Z,95.59
2019-05-17T04:26:43.813Z,95.53
2019-05-17T04:27:47.331Z,94.98
2019-05-17T04:28:52.954Z,95.35
2019-05-17T04:29:55.110Z,95.35
2019-05-17T04:30:57.974Z,95.38
2019-05-17T04:32:03.901Z,95.20
2019-05-17T04:33:07.488Z,95.23
2019-05-17T04:34:13.521Z,95.64
2019-05-17T04:35:17.429Z,95.64
2019-05-17T04:36:22.531Z,95.41
2019-05-17T04:37:25.958Z,95.06
2019-05-17T04:38:32.857Z,94.63
2019-05-17T04:39:33.813Z,95.16
2019-05-17T04:40:37.711Z,95.14
2019-05-17T04:41:46.947Z,94.96
2019-05-17T04:42:45.619Z,94.96
2019-05-17T04:43:48.438Z,95.20
2019-05-17T04:44:55.604Z,94.91
2019-05-17T04:46:02.456Z,94.33
2019-05-17T04:47:04.180Z,94.42
2019-05-17T04:48:06.995Z,94.63
2019-05-17T04:49:13.511Z,94.20
2019-05-17T04:50:14.927Z,95.16
2019-05-17T04:51:18.279Z,94.97
2019-05-17T04:52:33.335Z,95.21
2019-05-17T04:53:35.378Z,95.20
2019-05-17T04:54:38.181Z,94.73
2019-05-17T04:55:43.083Z,94.99
2019-05-17T04:56:46.678Z,94.99
2019-05-17T04:57:53.026Z,94.73
2019-05-17T04:58:55.058Z,94.45
2019-05-17T04:59:58.496Z,94.58
2019-05-17T05:01:03.932Z,93.73
2019-05-17T05:02:07.033Z,93.73
2019-05-17T05:03:12.564Z,94.11
2019-05-17T05:04:15.705Z,94.49
2019-05-17T05:05:22.462Z,94.49
2019-05-17T05:06:24.100Z,94.49
2019-05-17T05:07:33.543Z,94.06
2019-05-17T05:08:36.530Z,94.06
2019-05-17T05:09:39.377Z,94.64
2019-05-17T05:10:42.984Z,94.43
2019-05-17T05:11:59.435Z,94.32
2019-05-17T05:12:52.497Z,94.74
2019-05-17T05:13:57.410Z,94.74
2019-05-17T05:15:03.551Z,94.20
2019-05-17T05:16:06.162Z,93.85
2019-05-17T05:17:09.514Z,94.46
2019-05-17T05:18:13.595Z,93.93
2019-05-17T05:19:17.283Z,94.08
2019-05-17T05:20:22.119Z,94.65
2019-05-17T05:21:25.978Z,94.86
2019-05-17T05:22:28.774Z,94.95
2019-05-17T05:23:33.644Z,94.90
2019-05-17T05:24:36.773Z,94.19
2019-05-17T05:25:42.741Z,94.21
2019-05-17T05:26:44.891Z,94.04
2019-05-17T05:27:48.667Z,93.71
2019-05-17T05:28:52.902Z,94.30
2019-05-17T05:29:58.442Z,93.73
2019-05-17T05:44:05.539Z,93.83
2019-05-17T05:45:09.102Z,93.91
2019-05-17T05:46:11.977Z,93.83
2019-05-17T05:47:15.471Z,94.24
2019-05-17T05:48:18.347Z,94.24
2019-05-17T05:49:27.223Z,94.01
2019-05-17T05:50:32.376Z,94.01
2019-05-17T05:52:44.102Z,94.31
2019-05-17T05:53:47.578Z,94.25
2019-05-17T05:54:54.088Z,94.01
2019-05-17T05:55:58.051Z,93.56
2019-05-17T05:57:02.345Z,93.56
2019-05-17T05:58:07.157Z,93.77
2019-05-17T05:59:12.385Z,93.66
2019-05-17T06:00:35.925Z,93.66
2019-05-17T06:03:36.997Z,93.49
2019-05-17T06:04:42.338Z,93.59
2019-05-17T06:05:45.145Z,93.66
2019-05-17T06:06:49.041Z,93.50
2019-05-17T06:07:52.217Z,93.75
2019-05-17T06:08:55.716Z,93.29
2019-05-17T06:10:02.025Z,93.78
2019-05-17T06:11:04.675Z,93.87
2019-05-17T06:12:20.798Z,93.87
2019-05-17T06:13:15.287Z,93.74
2019-05-17T06:14:18.165Z,93.60
2019-05-17T06:15:21.987Z,93.55
2019-05-17T06:16:25.221Z,93.82
2019-05-17T06:17:28.752Z,94.29
2019-05-17T06:18:31.940Z,93.66
2019-05-17T06:19:35.396Z,94.21
2019-05-17T06:20:38.256Z,94.21
2019-05-17T06:21:43.881Z,93.69
2019-05-17T06:22:47.159Z,93.84
2019-05-17T06:23:51.630Z,94.08
2019-05-17T06:24:54.570Z,93.10
2019-05-17T06:25:57.902Z,93.32
2019-05-17T06:27:01.903Z,93.32
2019-05-17T06:28:05.504Z,93.59
2019-05-17T06:29:11.922Z,93.02
2019-05-17T06:30:15.423Z,93.17
2019-05-17T06:31:18.342Z,93.35
2019-05-17T06:32:22.840Z,93.68
2019-05-17T06:33:30.904Z,93.59
2019-05-17T06:34:33.026Z,93.45
2019-05-17T06:35:38.580Z,93.45
2019-05-17T06:36:43.121Z,92.85
2019-05-17T06:37:46.419Z,93.13
2019-05-17T06:38:52.619Z,92.85
2019-05-17T06:39:54.592Z,92.59
2019-05-17T06:41:01.656Z,92.00
2019-05-17T06:42:03.212Z,92.22
2019-05-17T06:43:06.608Z,92.51
2019-05-17T06:44:15.305Z,92.45
2019-05-17T06:45:18.681Z,92.45
2019-05-17T06:46:22.075Z,92.39
2019-05-17T06:47:25.817Z,91.71
2019-05-17T06:48:31.597Z,92.33
2019-05-17T06:49:34.397Z,92.33
2019-05-17T06:50:37.506Z,92.61
2019-05-17T06:51:42.675Z,92.61
2019-05-17T06:52:45.350Z,92.18
2019-05-17T06:53:48.741Z,92.07
2019-05-17T06:54:56.143Z,92.42
2019-05-17T06:55:59.615Z,92.23
2019-05-17T06:57:04.961Z,92.31
2019-05-17T06:58:08.334Z,92.31
2019-05-17T06:59:11.150Z,92.56
2019-05-17T07:00:20.861Z,92.46
2019-05-17T07:01:22.954Z,92.03
2019-05-17T07:02:26.350Z,92.65
2019-05-17T07:03:29.796Z,92.25
2019-05-17T07:04:33.260Z,92.68
2019-05-17T07:05:40.199Z,92.41
2019-05-17T07:06:49.428Z,92.31
2019-05-17T07:07:51.578Z,92.96
2019-05-17T07:08:57.826Z,92.68
2019-05-17T07:10:05.413Z,92.68
2019-05-17T07:11:09.770Z,92.83
2019-05-17T07:12:13.141Z,92.83
2019-05-17T07:13:16.643Z,92.95
2019-05-17T07:14:20.065Z,92.63
2019-05-17T07:15:23.517Z,92.63
2019-05-17T07:16:26.467Z,92.29
2019-05-17T07:17:30.523Z,92.29
2019-05-17T07:18:33.788Z,92.72
2019-05-17T07:19:39.878Z,92.66
2019-05-17T07:20:41.669Z,92.58
2019-05-17T07:21:49.412Z,92.58
2019-05-17T07:22:50.815Z,92.88
2019-05-17T07:23:54.176Z,92.99
2019-05-17T07:24:59.548Z,92.80
2019-05-17T07:26:02.307Z,92.53
2019-05-17T07:27:05.229Z,92.54
2019-05-17T07:28:09.980Z,92.51
2019-05-17T07:29:16.407Z,92.70
2019-05-17T07:30:19.829Z,92.70
2019-05-17T07:31:23.390Z,93.06
2019-05-17T07:32:31.966Z,92.63
2019-05-17T07:33:34.767Z,93.50
2019-05-17T07:34:40.105Z,93.50
2019-05-17T07:35:42.708Z,93.52
2019-05-17T07:36:51.773Z,93.97
2019-05-17T07:37:54.845Z,93.89
2019-05-17T07:39:00.615Z,94.46
2019-05-17T07:40:05.364Z,94.21
2019-05-17T07:41:10.117Z,94.04
2019-05-17T07:42:15.323Z,93.88
2019-05-17T07:43:20.574Z,93.88
2019-05-17T07:44:23.728Z,94.41
2019-05-17T07:45:26.928Z,94.03
2019-05-17T07:46:29.847Z,94.18
2019-05-17T07:47:33.147Z,93.57
2019-05-17T07:48:36.264Z,93.56
2019-05-17T07:49:40.438Z,93.87
2019-05-17T07:50:44.209Z,94.04
2019-05-17T07:51:47.478Z,94.04
2019-05-17T07:52:50.269Z,93.60
2019-05-17T07:53:53.455Z,93.81
2019-05-17T07:54:56.088Z,93.37
2019-05-17T07:55:59.749Z,93.41
2019-05-17T07:57:10.713Z,92.83
2019-05-17T07:58:14.029Z,92.97
2019-05-17T07:59:17.177Z,93.45
2019-05-17T08:00:20.401Z,93.03
2019-05-17T08:01:23.150Z,93.08
2019-05-17T08:02:26.589Z,93.08
2019-05-17T08:03:40.361Z,92.84
2019-05-17T08:04:43.120Z,92.84
2019-05-17T08:05:47.247Z,93.23
2019-05-17T08:06:51.573Z,93.24
2019-05-17T08:07:54.701Z,92.33
2019-05-17T08:09:04.329Z,92.49
2019-05-17T08:10:05.449Z,92.09
2019-05-17T08:11:11.431Z,93.39
2019-05-17T08:12:14.143Z,93.26
2019-05-17T08:13:27.462Z,93.35
2019-05-17T08:14:29.554Z,93.35
2019-05-17T08:15:26.767Z,92.75
2019-05-17T08:16:30.344Z,93.62
2019-05-17T08:17:33.936Z,93.99
2019-05-17T08:18:37.444Z,93.22
2019-05-17T08:19:40.643Z,93.94
2019-05-17T08:20:43.685Z,93.81
2019-05-17T08:21:47.065Z,94.05
2019-05-17T08:22:50.249Z,93.49
2019-05-17T08:23:53.692Z,93.80
2019-05-17T08:24:56.926Z,93.21
2019-05-17T08:26:00.709Z,93.73
2019-05-17T08:27:03.961Z,93.96
2019-05-17T08:28:07.352Z,94.36
2019-05-17T08:29:10.589Z,94.36
2019-05-17T08:30:13.867Z,94.61
2019-05-17T08:31:20.899Z,94.38
2019-05-17T08:32:24.408Z,95.05
2019-05-17T08:33:29.837Z,94.86
2019-05-17T08:34:33.005Z,94.84
2019-05-17T08:35:35.759Z,95.09
2019-05-17T08:36:40.685Z,94.88
2019-05-17T08:37:43.389Z,95.55
2019-05-17T08:38:46.833Z,95.55
2019-05-17T08:39:51.354Z,95.38
2019-05-17T08:40:54.837Z,95.31
2019-05-17T08:42:01.201Z,95.31
2019-05-17T08:43:05.645Z,94.71
2019-05-17T08:44:10.065Z,94.71
2019-05-17T08:45:13.511Z,94.58
2019-05-17T08:46:16.568Z,94.58
2019-05-17T08:47:23.564Z,94.37
2019-05-17T08:48:30.153Z,94.35
2019-05-17T08:49:34.553Z,94.56
2019-05-17T08:50:37.261Z,95.12
2019-05-17T08:51:40.547Z,95.20
2019-05-17T08:52:45.228Z,95.20
2019-05-17T08:53:50.803Z,95.13
2019-05-17T08:54:53.690Z,93.77
2019-05-17T08:55:57.181Z,93.15
2019-05-17T08:57:00.727Z,93.19
2019-05-17T08:58:04.275Z,93.69
2019-05-17T08:59:09.725Z,93.69
2019-05-17T09:00:13.181Z,93.65
2019-05-17T09:01:16.053Z,93.01
2019-05-17T09:02:20.003Z,92.47
2019-05-17T09:03:22.700Z,91.20
2019-05-17T09:04:26.150Z,91.96
2019-05-17T09:05:30.331Z,91.96
2019-05-17T09:06:33.746Z,92.15
2019-05-17T09:07:36.434Z,91.58
2019-05-17T09:08:40.519Z,91.58
2019-05-17T09:09:43.431Z,91.52
2019-05-17T09:10:46.807Z,92.12
2019-05-17T09:11:50.163Z,91.17
2019-05-17T09:12:55.228Z,91.17
2019-05-17T09:14:01.658Z,92.04
2019-05-17T09:15:05.809Z,91.06
2019-05-17T09:16:11.382Z,90.23
2019-05-17T09:17:21.054Z,90.30
2019-05-17T09:18:29.963Z,89.41
2019-05-17T09:19:33.080Z,90.44
2019-05-17T09:20:35.815Z,90.71
2019-05-17T09:21:39.838Z,90.68
2019-05-17T09:22:45.927Z,90.68
2019-05-17T09:23:50.373Z,90.93
2019-05-17T09:24:54.896Z,90.17
2019-05-17T09:25:59.512Z,90.78
2019-05-17T09:27:03.802Z,91.36
2019-05-17T09:28:09.868Z,91.36
2019-05-17T09:29:11.580Z,91.81
2019-05-17T09:30:15.878Z,90.13
2019-05-17T09:31:21.168Z,90.47
2019-05-17T09:32:24.684Z,90.41
2019-05-17T09:33:29.994Z,91.35
2019-05-17T09:34:33.552Z,90.65
2019-05-17T09:35:40.569Z,91.26
2019-05-17T09:36:43.795Z,90.15
2019-05-17T09:37:49.887Z,90.15
2019-05-17T09:38:55.813Z,90.53
2019-05-17T09:39:59.828Z,90.21
2019-05-17T09:41:03.351Z,90.46
2019-05-17T09:42:06.679Z,89.65
2019-05-17T09:43:16.181Z,89.41
2019-05-17T09:44:20.652Z,89.78
2019-05-17T09:45:24.333Z,89.78
2019-05-17T09:46:27.204Z,89.74
2019-05-17T09:47:30.424Z,90.83
2019-05-17T09:48:33.308Z,90.83
2019-05-17T09:49:39.457Z,90.70
2019-05-17T09:50:42.181Z,90.70
2019-05-17T09:51:45.693Z,90.73
2019-05-17T09:52:56.242Z,90.14
2019-05-17T09:54:01.363Z,89.33
2019-05-17T09:55:21.962Z,89.93
2019-05-17T09:56:25.462Z,89.43
2019-05-17T09:57:29.824Z,88.96
2019-05-17T09:58:43.737Z,89.52
2019-05-17T09:59:46.664Z,90.15
2019-05-17T10:00:50.218Z,88.90
2019-05-17T10:01:53.440Z,88.90
2019-05-17T10:03:00.154Z,90.29
2019-05-17T10:04:07.636Z,89.56
2019-05-17T10:05:19.961Z,90.24
2019-05-17T10:06:20.198Z,90.24
2019-05-17T10:07:25.162Z,90.01
2019-05-17T10:08:31.844Z,89.94
2019-05-17T10:09:39.845Z,89.94
2019-05-17T10:10:43.852Z,90.55
2019-05-17T10:11:49.230Z,90.13
2019-05-17T10:12:52.030Z,90.13
2019-05-17T10:14:01.086Z,90.14
2019-05-17T10:15:04.053Z,89.95
2019-05-17T10:16:09.962Z,88.98
2019-05-17T10:17:11.751Z,89.52
2019-05-17T10:18:15.662Z,88.30
2019-05-17T10:19:21.899Z,88.50
2019-05-17T10:20:25.099Z,89.50
2019-05-17T10:21:30.243Z,89.46
2019-05-17T10:22:36.302Z,89.31
2019-05-17T10:23:40.674Z,90.06
2019-05-17T10:24:44.222Z,90.08
2019-05-17T10:25:47.090Z,90.08
2019-05-17T10:26:51.022Z,89.83
2019-05-17T10:27:54.365Z,90.44
2019-05-17T10:28:59.387Z,90.44
2019-05-17T10:30:05.220Z,89.41
2019-05-17T10:43:10.054Z,90.11
2019-05-17T10:44:13.706Z,90.11
2019-05-17T10:45:19.873Z,90.39
2019-05-17T10:46:23.484Z,90.46
2019-05-17T10:47:30.147Z,90.54
2019-05-17T10:48:35.241Z,90.16
2019-05-17T10:49:43.869Z,90.16
2019-05-17T10:50:49.510Z,91.15
2019-05-17T10:51:56.906Z,91.15
2019-05-17T10:53:03.662Z,90.76
2019-05-17T10:54:10.790Z,90.76
2019-05-17T10:55:14.463Z,91.10
2019-05-17T10:56:19.895Z,90.85
2019-05-17T10:57:24.389Z,90.85
2019-05-17T10:58:33.170Z,91.40
2019-05-17T10:59:40.131Z,90.72
2019-05-17T11:00:43.495Z,90.88
2019-05-17T11:01:50.159Z,90.80
2019-05-17T11:02:57.217Z,91.42
2019-05-17T11:04:00.575Z,91.04
2019-05-17T11:05:03.783Z,91.78
2019-05-17T11:06:07.229Z,91.14
2019-05-17T11:07:10.678Z,91.14
2019-05-17T11:08:19.734Z,91.07
2019-05-17T11:09:22.459Z,90.81
2019-05-17T11:10:25.972Z,90.97
2019-05-17T11:11:29.221Z,90.73
2019-05-17T11:12:32.608Z,90.51
2019-05-17T11:13:35.856Z,91.01
2019-05-17T11:14:52.148Z,90.92
2019-05-17T11:15:46.689Z,90.14
2019-05-17T11:16:50.166Z,90.69
2019-05-17T11:17:57.194Z,90.69
2019-05-17T11:19:03.237Z,90.19
2019-05-17T11:20:08.456Z,90.74
2019-05-17T11:21:12.547Z,90.74
2019-05-17T11:22:15.860Z,90.74
2019-05-17T11:23:19.426Z,90.34
2019-05-17T11:24:22.331Z,89.74
2019-05-17T11:25:26.696Z,90.07
2019-05-17T11:26:30.641Z,90.06
2019-05-17T11:27:34.119Z,89.69
2019-05-17T11:28:37.125Z,89.69
2019-05-17T11:29:42.806Z,89.44
2019-05-17T11:30:45.624Z,89.44
2019-05-17T11:31:53.217Z,90.17
2019-05-17T11:32:59.622Z,89.01
2019-05-17T11:34:06.075Z,89.04
2019-05-17T11:35:08.934Z,89.93
2019-05-17T11:36:14.250Z,89.93
2019-05-17T11:37:19.906Z,89.59
2019-05-17T11:38:23.351Z,89.59
2019-05-17T11:39:26.802Z,88.92
2019-05-17T11:40:30.209Z,87.83
2019-05-17T11:41:33.087Z,87.41
2019-05-17T11:42:36.529Z,87.90
2019-05-17T11:43:39.344Z,87.34
2019-05-17T11:44:43.109Z,86.94
2019-05-17T11:45:51.121Z,86.94
2019-05-17T11:46:54.652Z,87.04
2019-05-17T11:47:57.846Z,87.36
2019-05-17T11:49:01.331Z,87.36
2019-05-17T11:50:04.601Z,86.97
2019-05-17T11:51:08.025Z,87.36
2019-05-17T11:52:11.239Z,87.36
2019-05-17T11:53:14.709Z,87.22
2019-05-17T11:54:17.592Z,86.65
2019-05-17T11:55:21.306Z,86.64
2019-05-17T11:56:25.649Z,85.92
2019-05-17T11:57:29.113Z,85.55
2019-05-17T11:58:38.394Z,85.55
2019-05-17T11:59:46.702Z,84.78
2019-05-17T12:00:52.039Z,84.48
2019-05-17T12:01:55.554Z,82.96
2019-05-17T12:02:58.559Z,82.96
2019-05-17T12:04:02.000Z,82.96
2019-05-17T12:05:08.370Z,83.02
2019-05-17T12:06:12.209Z,82.10
2019-05-17T12:07:15.176Z,82.10
2019-05-17T12:08:19.133Z,81.82
2019-05-17T12:09:36.505Z,82.61
2019-05-17T12:10:27.643Z,82.61
2019-05-17T12:11:31.201Z,83.06
2019-05-17T12:12:34.913Z,83.06
2019-05-17T12:13:37.851Z,82.03
2019-05-17T12:14:44.448Z,82.84
2019-05-17T12:15:47.351Z,82.73
2019-05-17T12:16:51.435Z,82.07
2019-05-17T12:17:54.568Z,82.30
2019-05-17T12:18:58.345Z,82.30
2019-05-17T12:20:01.464Z,80.40
2019-05-17T12:21:12.432Z,81.53
2019-05-17T12:22:15.430Z,81.53
2019-05-17T12:23:18.894Z,80.99
2019-05-17T12:24:21.840Z,80.23
2019-05-17T12:25:25.486Z,80.23
2019-05-17T12:26:28.397Z,80.28
2019-05-17T12:27:33.999Z,80.28
2019-05-17T12:28:38.707Z,79.19
2019-05-17T12:29:42.541Z,79.19
2019-05-17T12:30:48.697Z,79.69
2019-05-17T12:31:51.340Z,79.48
2019-05-17T12:32:54.331Z,79.48
2019-05-17T12:33:57.937Z,79.71
2019-05-17T12:35:00.885Z,79.71
2019-05-17T12:36:07.109Z,78.89
2019-05-17T12:37:11.904Z,78.89
2019-05-17T12:38:15.429Z,77.88
2019-05-17T12:39:19.147Z,78.30
2019-05-17T12:40:22.822Z,77.11
2019-05-17T12:41:25.879Z,77.03
2019-05-17T12:42:30.197Z,76.81
2019-05-17T12:43:33.126Z,76.54
2019-05-17T12:44:37.317Z,76.54
2019-05-17T12:45:40.358Z,76.12
2019-05-17T12:46:46.166Z,76.12
2019-05-17T12:47:49.014Z,76.77
2019-05-17T12:48:53.020Z,76.82
2019-05-17T12:49:55.938Z,76.96
2019-05-17T12:50:59.293Z,73.99
2019-05-17T12:52:02.131Z,75.11
2019-05-17T12:53:07.042Z,74.99
2019-05-17T12:54:09.967Z,74.99
2019-05-17T12:55:14.198Z,73.53
2019-05-17T12:56:22.313Z,73.97
2019-05-17T12:57:39.367Z,73.97
2019-05-17T12:58:39.087Z,73.87
2019-05-17T12:59:44.889Z,74.35
2019-05-17T13:00:51.834Z,73.57
2019-05-17T13:01:56.111Z,74.52
2019-05-17T13:02:58.958Z,74.30
2019-05-17T13:04:02.893Z,73.92
2019-05-17T13:05:05.865Z,74.11
2019-05-17T13:06:09.805Z,73.94
2019-05-17T13:07:15.387Z,73.94
2019-05-17T13:08:23.375Z,71.56
2019-05-17T13:09:26.740Z,72.04
2019-05-17T13:10:31.891Z,72.04
2019-05-17T13:11:34.763Z,71.21
2019-05-17T13:12:44.292Z,71.21
2019-05-17T13:13:47.265Z,68.54
2019-05-17T13:14:52.453Z,69.29
2019-05-17T13:15:55.467Z,69.91
2019-05-17T13:16:58.831Z,71.13
2019-05-17T13:18:02.632Z,70.30
2019-05-17T13:19:06.011Z,70.30
2019-05-17T13:20:12.233Z,70.24
2019-05-17T13:21:15.782Z,71.45
2019-05-17T13:22:21.975Z,71.45
2019-05-17T13:23:25.424Z,71.16
2019-05-17T13:24:30.968Z,71.62
2019-05-17T13:25:34.530Z,71.75
2019-05-17T13:26:41.629Z,71.75
2019-05-17T13:27:45.204Z,72.80
2019-05-17T13:28:48.099Z,72.80
2019-05-17T13:29:51.723Z,72.88
2019-05-17T13:30:58.462Z,72.70
2019-05-17T13:32:05.876Z,72.70
2019-05-17T13:33:08.770Z,73.31
2019-05-17T13:34:12.457Z,73.96
2019-05-17T13:35:18.876Z,73.00
2019-05-17T13:36:24.751Z,73.40
2019-05-17T13:37:32.623Z,73.78
2019-05-17T13:38:36.235Z,72.92
2019-05-17T13:39:39.141Z,72.92
2019-05-17T13:40:42.538Z,71.98
2019-05-17T13:41:46.967Z,71.55
2019-05-17T13:42:52.346Z,69.74
2019-05-17T13:43:55.353Z,68.87
2019-05-17T13:45:06.442Z,69.20
2019-05-17T13:46:10.595Z,69.20
2019-05-17T13:47:16.772Z,69.37
2019-05-17T13:48:24.213Z,69.43
2019-05-17T13:49:31.424Z,69.43
2019-05-17T13:50:34.391Z,65.70
2019-05-17T13:51:38.022Z,65.29
2019-05-17T13:52:41.031Z,66.37
2019-05-17T13:53:47.625Z,65.02
2019-05-17T13:54:50.715Z,66.26
2019-05-17T13:55:54.524Z,66.09
2019-05-17T13:57:00.259Z,67.20
2019-05-17T13:58:04.536Z,67.62
2019-05-17T13:59:07.333Z,67.80
2019-05-17T14:00:12.194Z,68.66
2019-05-17T14:01:18.065Z,67.62
2019-05-17T14:02:23.827Z,68.13
2019-05-17T14:03:26.683Z,69.01
2019-05-17T14:04:32.265Z,68.94
2019-05-17T14:05:35.131Z,68.83
2019-05-17T14:06:38.570Z,68.37
2019-05-17T14:07:41.345Z,68.52
2019-05-17T14:08:47.487Z,68.52
2019-05-17T14:09:50.349Z,67.69
2019-05-17T14:10:56.894Z,68.78
2019-05-17T14:12:02.610Z,68.23
2019-05-17T14:13:08.788Z,68.23
2019-05-17T14:14:18.871Z,68.11
2019-05-17T14:15:22.291Z,67.67
2019-05-17T14:16:25.243Z,67.94
2019-05-17T14:17:31.131Z,67.54
2019-05-17T14:18:35.737Z,66.51